createdAt,value
2018-07-10T00:00:07.839Z,8.20
2018-07-10T00:03:23.496Z,9.30
2018-07-10T00:07:06.306Z,5.47
2018-07-10T00:10:15.946Z,7.10
2018-07-10T00:12:44.863Z,5.83
2018-07-10T00:15:13.627Z,6.83
2018-07-10T00:17:42.540Z,8.63
2018-07-10T00:20:11.533Z,6.27
2018-07-10T00:22:40.440Z,7.73
2018-07-10T00:25:09.290Z,6.50
2018-07-10T00:27:38.155Z,4.77
2018-07-10T00:30:06.980Z,3.50
2018-07-10T00:32:35.948Z,7.57
2018-07-10T00:35:04.989Z,6.37
2018-07-10T00:37:33.952Z,5.60
2018-07-10T00:40:02.936Z,9.90
2018-07-10T00:42:31.828Z,6.00
2018-07-10T00:45:00.871Z,6.33
2018-07-10T00:47:29.811Z,5.57
2018-07-10T00:49:58.543Z,5.57
2018-07-10T00:52:33.595Z,6.43
2018-07-10T00:55:03.059Z,4.70
2018-07-10T00:57:32.823Z,7.13
2018-07-10T01:00:03.122Z,6.63
2018-07-10T01:02:32.123Z,8.37
2018-07-10T01:05:00.984Z,6.03
2018-07-10T01:07:29.884Z,6.47
2018-07-10T01:09:58.733Z,7.03
2018-07-10T01:12:27.624Z,7.23
2018-07-10T01:14:56.790Z,12.43
2018-07-10T01:17:25.707Z,6.97
2018-07-10T01:19:54.723Z,9.00
2018-07-10T01:22:23.466Z,7.67
2018-07-10T01:24:52.437Z,7.67
2018-07-10T01:27:21.762Z,9.70
2018-07-10T01:29:51.201Z,8.50
2018-07-10T01:32:20.284Z,9.17
2018-07-10T01:34:49.251Z,7.17
2018-07-10T01:37:18.280Z,7.40
2018-07-10T01:39:46.977Z,6.03
2018-07-10T01:42:15.898Z,4.63
2018-07-10T01:44:44.807Z,5.23
2018-07-10T01:47:13.719Z,6.90
2018-07-10T01:49:42.692Z,8.10
2018-07-10T01:52:11.691Z,8.17
2018-07-10T01:54:40.646Z,7.63
2018-07-10T01:57:09.712Z,8.93
2018-07-10T01:59:38.676Z,8.63
2018-07-10T02:02:07.640Z,10.03
2018-07-10T02:04:37.761Z,6.73
2018-07-10T02:07:06.427Z,10.10
2018-07-10T02:09:35.679Z,11.27
2018-07-10T02:12:04.517Z,8.03
2018-07-10T02:14:33.483Z,10.50
2018-07-10T02:17:02.384Z,9.83
2018-07-10T02:19:31.406Z,9.77
2018-07-10T02:22:00.504Z,6.90
2018-07-10T02:24:29.484Z,7.90
2018-07-10T02:26:58.453Z,7.20
2018-07-10T02:29:27.759Z,6.77
2018-07-10T02:31:56.631Z,12.23
2018-07-10T02:34:25.567Z,8.07
2018-07-10T02:36:54.447Z,9.87
2018-07-10T02:39:23.455Z,17.13
2018-07-10T02:41:52.756Z,11.27
2018-07-10T02:44:21.774Z,9.80
2018-07-10T02:46:50.868Z,7.60
2018-07-10T02:49:21.216Z,8.97
2018-07-10T02:51:56.099Z,7.67
2018-07-10T02:54:27.524Z,6.77
2018-07-10T02:56:57.370Z,11.70
2018-07-10T02:59:34.328Z,10.57
2018-07-10T03:02:04.762Z,8.47
2018-07-10T03:04:35.664Z,9.53
2018-07-10T03:07:04.680Z,9.73
2018-07-10T03:09:34.099Z,7.60
2018-07-10T03:12:03.835Z,8.73
2018-07-10T03:14:32.768Z,10.50
2018-07-10T03:17:02.139Z,12.97
2018-07-10T03:19:31.932Z,9.37
2018-07-10T03:22:01.090Z,8.17
2018-07-10T03:24:30.094Z,9.23
2018-07-10T03:26:59.195Z,12.43
2018-07-10T03:29:28.143Z,8.07
2018-07-10T03:31:57.239Z,8.23
2018-07-10T03:34:25.838Z,9.13
2018-07-10T03:36:54.661Z,10.53
2018-07-10T03:39:23.591Z,13.07
2018-07-10T03:41:52.538Z,15.73
2018-07-10T03:44:21.334Z,11.77
2018-07-10T03:46:50.323Z,13.77
2018-07-10T03:49:19.285Z,10.17
2018-07-10T03:51:48.506Z,15.13
2018-07-10T03:54:17.487Z,10.60
2018-07-10T03:56:46.924Z,12.97
2018-07-10T03:59:15.903Z,14.43
2018-07-10T04:01:44.912Z,14.00
2018-07-10T04:04:14.618Z,16.43
2018-07-10T04:06:45.637Z,10.63
2018-07-10T04:09:14.652Z,12.67
2018-07-10T04:11:48.011Z,18.50
2018-07-10T04:14:21.838Z,12.20
2018-07-10T04:16:50.941Z,13.43
2018-07-10T04:19:19.980Z,12.07
2018-07-10T04:21:55.787Z,15.40
2018-07-10T04:24:25.059Z,12.33
2018-07-10T04:27:08.194Z,13.17
2018-07-10T04:30:17.156Z,15.47
2018-07-10T04:32:46.170Z,12.67
2018-07-10T04:35:18.738Z,15.17
2018-07-10T04:37:50.372Z,10.20
2018-07-10T04:40:20.257Z,12.10
2018-07-10T04:43:00.027Z,10.00
2018-07-10T04:45:41.155Z,11.23
2018-07-10T04:48:28.070Z,11.43
2018-07-10T04:51:37.136Z,14.57
2018-07-10T04:54:29.398Z,14.90
2018-07-10T04:57:07.415Z,16.57
2018-07-10T04:59:36.707Z,11.87
2018-07-10T05:02:06.593Z,10.90
2018-07-10T05:04:35.776Z,12.83
2018-07-10T05:07:09.403Z,11.70
2018-07-10T05:09:39.975Z,17.47
2018-07-10T05:12:09.177Z,13.83
2018-07-10T05:14:43.488Z,17.70
2018-07-10T05:17:14.563Z,12.30
2018-07-10T05:19:43.562Z,14.57
2018-07-10T05:22:12.651Z,18.60
2018-07-10T05:24:41.659Z,15.13
2018-07-10T05:27:11.136Z,16.27
2018-07-10T05:29:40.136Z,17.67
2018-07-10T05:32:10.544Z,16.63
2018-07-10T05:34:40.464Z,15.00
2018-07-10T05:37:12.447Z,16.97
2018-07-10T05:39:47.268Z,23.70
2018-07-10T05:42:16.227Z,14.33
2018-07-10T05:44:46.391Z,17.17
2018-07-10T05:47:15.478Z,20.00
2018-07-10T05:49:44.526Z,18.07
2018-07-10T05:52:13.260Z,21.23
2018-07-10T05:54:44.797Z,18.50
2018-07-10T05:57:13.708Z,17.47
2018-07-10T05:59:42.727Z,17.50
2018-07-10T06:02:11.759Z,17.47
2018-07-10T06:04:40.741Z,18.43
2018-07-10T06:07:09.682Z,19.13
2018-07-10T06:09:38.720Z,18.90
2018-07-10T06:12:07.731Z,17.53
2018-07-10T06:14:36.680Z,13.13
2018-07-10T06:17:06.193Z,15.87
2018-07-10T06:19:35.264Z,20.83
2018-07-10T06:22:04.343Z,17.77
2018-07-10T06:24:33.073Z,16.23
2018-07-10T06:27:06.496Z,20.93
2018-07-10T06:29:54.672Z,15.63
2018-07-10T06:32:23.919Z,20.47
2018-07-10T06:35:02.175Z,18.10
2018-07-10T06:37:32.440Z,20.33
2018-07-10T06:40:06.395Z,13.93
2018-07-10T06:42:52.291Z,16.67
2018-07-10T06:45:27.953Z,21.53
2018-07-10T06:47:56.970Z,19.07
2018-07-10T06:50:26.223Z,19.63
2018-07-10T06:52:55.799Z,15.07
2018-07-10T06:55:24.669Z,15.70
2018-07-10T06:57:57.350Z,18.80
2018-07-10T07:00:27.151Z,21.97
2018-07-10T07:02:56.227Z,18.27
2018-07-10T07:05:25.146Z,16.80
2018-07-10T07:07:54.181Z,18.43
2018-07-10T07:10:24.300Z,18.40
2018-07-10T07:12:53.239Z,13.60
2018-07-10T07:15:22.592Z,18.57
2018-07-10T07:17:52.744Z,15.70
2018-07-10T07:20:22.498Z,16.07
2018-07-10T07:22:51.754Z,17.53
2018-07-10T07:25:20.638Z,14.90
2018-07-10T07:27:49.591Z,15.93
2018-07-10T07:30:18.571Z,14.73
2018-07-10T07:32:48.226Z,14.80
2018-07-10T07:35:17.179Z,11.83
2018-07-10T07:37:46.564Z,20.83
2018-07-10T07:40:15.548Z,12.37
2018-07-10T07:42:44.455Z,12.30
2018-07-10T07:45:19.851Z,15.80
2018-07-10T07:47:49.438Z,16.07
2018-07-10T07:50:19.285Z,13.30
2018-07-10T07:52:48.244Z,19.47
2018-07-10T07:55:17.248Z,16.83
2018-07-10T07:57:46.117Z,14.40
2018-07-10T08:00:14.838Z,13.47
2018-07-10T08:02:43.750Z,18.13
2018-07-10T08:05:12.820Z,23.33
2018-07-10T08:07:41.735Z,19.60
2018-07-10T08:10:10.564Z,25.90
2018-07-10T08:12:39.575Z,26.13
2018-07-10T08:15:08.595Z,25.37
2018-07-10T08:17:37.564Z,25.73
2018-07-10T08:20:06.765Z,26.90
2018-07-10T08:22:35.851Z,28.77
2018-07-10T08:25:05.562Z,24.17
2018-07-10T08:27:36.891Z,24.57
2018-07-10T08:30:06.152Z,20.23
2018-07-10T08:32:37.092Z,14.10
2018-07-10T08:35:06.145Z,14.27
2018-07-10T08:37:35.222Z,13.37
2018-07-10T08:40:04.133Z,13.53
2018-07-10T08:42:32.924Z,10.20
2018-07-10T08:45:02.827Z,8.93
2018-07-10T08:47:31.895Z,10.60
2018-07-10T08:50:00.673Z,9.30
2018-07-10T08:52:29.656Z,6.73
2018-07-10T08:54:58.683Z,8.77
2018-07-10T08:57:27.920Z,10.63
2018-07-10T08:59:56.757Z,9.70
2018-07-10T09:02:25.688Z,13.83
2018-07-10T09:04:54.692Z,9.03
2018-07-10T09:07:23.688Z,13.13
2018-07-10T09:09:52.621Z,9.33
2018-07-10T09:12:21.512Z,4.87
2018-07-10T09:14:50.504Z,12.07
2018-07-10T09:17:20.457Z,6.73
2018-07-10T09:19:49.491Z,8.97
2018-07-10T09:22:18.239Z,11.57
2018-07-10T09:24:52.189Z,11.80
2018-07-10T09:27:22.484Z,17.33
2018-07-10T09:29:51.456Z,12.20
2018-07-10T09:32:27.191Z,13.27
2018-07-10T09:34:57.592Z,7.60
2018-07-10T09:37:34.789Z,11.13
2018-07-10T09:40:09.446Z,12.00
2018-07-10T09:42:44.748Z,14.47
2018-07-10T09:45:19.786Z,14.17
2018-07-10T09:47:48.806Z,10.23
2018-07-10T09:50:17.828Z,12.70
2018-07-10T09:52:46.768Z,15.73
2018-07-10T09:55:15.547Z,19.07
2018-07-10T09:57:44.515Z,9.83
2018-07-10T10:00:13.495Z,10.63
2018-07-10T10:02:42.476Z,8.63
2018-07-10T10:05:11.566Z,16.10
2018-07-10T10:07:40.489Z,17.13
2018-07-10T10:10:09.442Z,13.30
2018-07-10T10:12:38.434Z,10.83
2018-07-10T10:15:07.285Z,9.37
2018-07-10T10:17:36.306Z,15.80
2018-07-10T10:20:05.143Z,7.63
2018-07-10T10:22:35.653Z,10.87
2018-07-10T10:25:04.518Z,5.27
2018-07-10T10:27:33.302Z,11.13
2018-07-10T10:30:02.145Z,10.87
2018-07-10T10:32:31.414Z,6.40
2018-07-10T10:35:00.302Z,8.83
2018-07-10T10:37:29.276Z,9.97
2018-07-10T10:39:59.553Z,6.43
2018-07-10T10:42:28.877Z,9.67
2018-07-10T10:45:00.638Z,5.60
2018-07-10T10:47:31.211Z,7.80
2018-07-10T10:50:01.080Z,8.73
2018-07-10T10:52:30.113Z,5.30
2018-07-10T10:54:58.880Z,4.83
2018-07-10T10:57:35.694Z,4.83
2018-07-10T11:00:05.182Z,3.63
2018-07-10T11:02:34.181Z,2.93
2018-07-10T11:05:03.507Z,3.37
2018-07-10T11:07:34.115Z,2.87
2018-07-10T11:10:03.021Z,5.43
2018-07-10T11:12:32.817Z,3.90
2018-07-10T11:15:03.595Z,3.47
2018-07-10T11:17:44.637Z,5.47
2018-07-10T11:20:29.014Z,4.60
2018-07-10T11:23:06.304Z,1.93
2018-07-10T11:25:41.588Z,4.10
2018-07-10T11:28:13.216Z,1.60
2018-07-10T11:30:42.214Z,1.60
2018-07-10T11:33:11.589Z,1.00
2018-07-10T11:35:40.624Z,2.23
2018-07-10T11:38:13.745Z,0.90
2018-07-10T11:40:45.568Z,1.43
2018-07-10T11:43:14.587Z,0.93
2018-07-10T11:45:49.743Z,0.77
2018-07-10T11:48:18.583Z,0.60
2018-07-10T11:50:47.544Z,0.87
2018-07-10T11:53:16.868Z,0.83
2018-07-10T11:55:45.848Z,0.43
2018-07-10T11:58:14.832Z,0.20
2018-07-10T12:00:43.886Z,1.53
2018-07-10T12:03:12.808Z,0.30
2018-07-10T12:05:42.259Z,0.33
2018-07-10T12:08:11.187Z,0.33
2018-07-10T12:10:40.201Z,0.97
2018-07-10T12:13:09.130Z,1.57
2018-07-10T12:15:38.120Z,1.43
2018-07-10T12:18:07.099Z,2.17
2018-07-10T12:20:37.632Z,1.67
2018-07-10T12:23:08.656Z,1.07
2018-07-10T12:25:41.671Z,2.30
2018-07-10T12:28:11.848Z,2.57
2018-07-10T12:30:40.890Z,1.23
2018-07-10T12:33:10.041Z,0.97
2018-07-10T12:35:39.363Z,0.90
2018-07-10T12:38:08.211Z,1.10
2018-07-10T12:40:37.074Z,1.53
2018-07-10T12:43:05.999Z,1.10
2018-07-10T12:45:41.084Z,1.47
2018-07-10T12:48:09.803Z,3.00
2018-07-10T12:50:38.798Z,1.50
2018-07-10T12:53:07.724Z,0.50
2018-07-10T12:55:37.375Z,0.97
2018-07-10T12:58:06.552Z,1.20
2018-07-10T13:00:38.427Z,0.83
2018-07-10T13:03:09.912Z,0.67
2018-07-10T13:05:49.146Z,2.07
2018-07-10T13:08:18.443Z,0.50
2018-07-10T13:10:47.403Z,2.10
2018-07-10T13:13:16.539Z,1.10
2018-07-10T13:15:45.472Z,0.57
2018-07-10T13:18:15.799Z,1.27
2018-07-10T13:20:44.736Z,0.47
2018-07-10T13:23:13.461Z,0.40
2018-07-10T13:25:42.572Z,0.70
2018-07-10T13:28:11.598Z,0.60
2018-07-10T13:30:40.447Z,0.80
2018-07-10T13:33:09.548Z,1.50
2018-07-10T13:35:38.511Z,0.63
2018-07-10T13:38:07.695Z,3.17
2018-07-10T13:40:37.304Z,2.83
2018-07-10T13:43:06.106Z,0.40
2018-07-10T13:45:40.923Z,1.73
2018-07-10T13:48:10.043Z,0.63
2018-07-10T13:50:39.038Z,0.93
2018-07-10T13:53:08.080Z,0.80
2018-07-10T13:55:37.051Z,1.00
2018-07-10T13:58:11.109Z,2.27
2018-07-10T14:01:13.433Z,2.33
2018-07-10T14:03:42.457Z,0.90
2018-07-10T14:06:11.357Z,1.40
2018-07-10T14:08:40.379Z,1.20
2018-07-10T14:11:09.647Z,1.30
2018-07-10T14:13:38.632Z,1.00
2018-07-10T14:16:07.568Z,1.67
2018-07-10T14:18:36.344Z,0.63
2018-07-10T14:21:06.885Z,2.10
2018-07-10T14:23:36.443Z,1.67
2018-07-10T14:26:05.543Z,0.97
2018-07-10T14:28:34.780Z,1.83
2018-07-10T14:31:03.707Z,1.37
2018-07-10T14:33:32.716Z,1.90
2018-07-10T14:36:01.740Z,2.80
2018-07-10T14:38:31.029Z,2.60
2018-07-10T14:41:05.943Z,1.40
2018-07-10T14:43:37.962Z,1.83
2018-07-10T14:46:19.180Z,1.57
2018-07-10T14:48:54.367Z,1.70
2018-07-10T14:51:31.432Z,1.50
2018-07-10T14:54:00.375Z,2.70
2018-07-10T14:56:29.463Z,2.83
2018-07-10T14:58:58.281Z,2.17
2018-07-10T15:01:27.235Z,3.47
2018-07-10T15:03:56.372Z,1.47
2018-07-10T15:06:25.239Z,0.80
2018-07-10T15:08:54.243Z,1.23
2018-07-10T15:11:23.252Z,0.50
2018-07-10T15:14:01.239Z,1.13
2018-07-10T15:16:35.511Z,1.77
2018-07-10T15:19:04.803Z,0.50
2018-07-10T15:21:33.828Z,0.93
2018-07-10T15:24:04.057Z,1.50
2018-07-10T15:26:33.597Z,4.23
2018-07-10T15:29:02.641Z,0.53
2018-07-10T15:31:31.775Z,1.80
2018-07-10T15:34:00.943Z,1.50
2018-07-10T15:36:29.874Z,0.83
2018-07-10T15:38:58.652Z,0.80
2018-07-10T15:41:29.777Z,1.00
2018-07-10T15:43:58.690Z,1.72
2018-07-10T15:46:27.540Z,2.23
2018-07-10T15:48:56.741Z,0.50
2018-07-10T15:51:25.968Z,0.50
2018-07-10T15:53:54.907Z,2.53
2018-07-10T15:56:23.843Z,1.47
2018-07-10T15:58:52.920Z,2.17
2018-07-10T16:01:21.831Z,0.73
2018-07-10T16:03:50.947Z,0.70
2018-07-10T16:06:19.946Z,0.80
2018-07-10T16:08:49.313Z,1.23
2018-07-10T16:11:18.304Z,1.97
2018-07-10T16:13:47.780Z,0.97
2018-07-10T16:16:19.107Z,0.80
2018-07-10T16:18:55.862Z,1.10
2018-07-10T16:21:32.540Z,1.30
2018-07-10T16:24:03.304Z,1.30
2018-07-10T16:26:32.320Z,2.63
2018-07-10T16:29:06.893Z,1.63
2018-07-10T16:31:37.152Z,1.60
2018-07-10T16:34:06.221Z,1.97
2018-07-10T16:36:35.180Z,2.37
2018-07-10T16:39:04.256Z,2.33
2018-07-10T16:41:39.011Z,1.73
2018-07-10T16:44:08.013Z,1.90
2018-07-10T16:46:37.115Z,1.40
2018-07-10T16:49:15.983Z,1.43
2018-07-10T16:51:54.977Z,1.50
2018-07-10T16:54:24.251Z,2.30
2018-07-10T16:56:53.167Z,3.83
2018-07-10T16:59:22.210Z,1.60
2018-07-10T17:01:51.544Z,2.63
2018-07-10T17:04:20.517Z,2.73
2018-07-10T17:06:49.436Z,2.07
2018-07-10T17:09:18.546Z,2.23
2018-07-10T17:11:47.723Z,2.57
2018-07-10T17:14:16.564Z,1.77
2018-07-10T17:16:45.359Z,2.17
2018-07-10T17:19:14.081Z,1.90
2018-07-10T17:21:43.260Z,3.37
2018-07-10T17:24:12.904Z,2.33
2018-07-10T17:26:41.871Z,1.87
2018-07-10T17:29:12.076Z,2.80
2018-07-10T17:31:41.149Z,2.30
2018-07-10T17:34:10.376Z,2.33
2018-07-10T17:36:39.523Z,1.80
2018-07-10T17:39:08.490Z,3.10
2018-07-10T17:41:37.571Z,2.03
2018-07-10T17:44:10.652Z,3.90
2018-07-10T17:46:39.941Z,3.30
2018-07-10T17:49:08.661Z,2.77
2018-07-10T17:51:37.885Z,2.90
2018-07-10T17:54:06.855Z,3.10
2018-07-10T17:56:36.110Z,4.10
2018-07-10T17:59:07.130Z,2.40
2018-07-10T18:01:36.704Z,3.17
2018-07-10T18:04:06.075Z,3.17
2018-07-10T18:06:35.541Z,2.43
2018-07-10T18:09:05.267Z,3.50
2018-07-10T18:11:34.503Z,3.37
2018-07-10T18:14:03.506Z,3.07
2018-07-10T18:16:33.994Z,2.77
2018-07-10T18:19:04.923Z,3.10
2018-07-10T18:21:34.851Z,2.97
2018-07-10T18:24:04.088Z,3.80
2018-07-10T18:26:33.335Z,5.07
2018-07-10T18:29:02.300Z,3.87
2018-07-10T18:31:31.115Z,4.30
2018-07-10T18:34:00.149Z,3.83
2018-07-10T18:36:29.165Z,4.47
2018-07-10T18:38:58.385Z,4.63
2018-07-10T18:41:27.708Z,4.57
2018-07-10T18:43:56.614Z,3.27
2018-07-10T18:46:25.545Z,3.37
2018-07-10T18:48:54.909Z,3.00
2018-07-10T18:51:23.862Z,3.13
2018-07-10T18:53:52.809Z,5.40
2018-07-10T18:56:22.492Z,2.70
2018-07-10T18:59:03.752Z,2.83
2018-07-10T19:01:56.119Z,4.27
2018-07-10T19:04:54.919Z,4.30
2018-07-10T19:07:25.236Z,6.40
2018-07-10T19:09:54.256Z,3.00
2018-07-10T19:12:23.246Z,3.37
2018-07-10T19:14:52.427Z,3.23
2018-07-10T19:17:32.188Z,2.70
2018-07-10T19:20:07.387Z,3.33
2018-07-10T19:23:22.814Z,2.90
2018-07-10T19:25:52.103Z,2.67
2018-07-10T19:28:21.075Z,3.73
2018-07-10T19:31:04.953Z,3.67
2018-07-10T19:33:34.045Z,3.40
2018-07-10T19:36:03.021Z,3.90
2018-07-10T19:38:32.435Z,2.13
2018-07-10T19:41:01.427Z,1.90
2018-07-10T19:43:30.752Z,2.10
2018-07-10T19:46:00.053Z,3.70
2018-07-10T19:48:29.137Z,3.67
2018-07-10T19:50:58.107Z,4.10
2018-07-10T19:53:27.736Z,2.50
2018-07-10T19:55:56.696Z,2.23
2018-07-10T19:58:33.951Z,2.33
2018-07-10T20:01:28.099Z,5.03
2018-07-10T20:04:18.152Z,3.40
2018-07-10T20:07:53.131Z,3.70
2018-07-10T20:10:35.022Z,3.33
2018-07-10T20:13:47.134Z,3.27
2018-07-10T20:16:39.293Z,3.13
2018-07-10T20:19:47.508Z,3.70
2018-07-10T20:22:28.379Z,4.40
2018-07-10T20:25:10.801Z,3.03
2018-07-10T20:27:52.636Z,3.23
2018-07-10T20:31:37.461Z,2.77
2018-07-10T20:35:21.399Z,4.13
2018-07-10T20:37:50.801Z,6.03
2018-07-10T20:40:32.384Z,4.73
2018-07-10T20:43:21.055Z,2.50
2018-07-10T20:45:56.731Z,3.37
2018-07-10T20:48:59.894Z,3.67
2018-07-10T20:51:33.982Z,4.87
2018-07-10T20:55:08.455Z,3.87
2018-07-10T20:58:05.654Z,3.07
2018-07-10T21:00:42.022Z,3.27
2018-07-10T21:03:24.462Z,2.83
2018-07-10T21:05:55.231Z,5.87
2018-07-10T21:08:45.308Z,4.43
2018-07-10T21:11:20.309Z,5.87
2018-07-10T21:13:55.084Z,3.97
2018-07-10T21:16:31.240Z,5.93
2018-07-10T21:19:18.334Z,4.27
2018-07-10T21:23:10.843Z,4.77
2018-07-10T21:26:48.494Z,4.80
2018-07-10T21:30:32.317Z,3.90
2018-07-10T21:33:17.417Z,4.07
2018-07-10T21:35:51.188Z,8.10
2018-07-10T21:40:43.774Z,3.67
2018-07-10T21:43:17.367Z,4.47
2018-07-10T21:47:03.244Z,3.63
2018-07-10T21:49:50.330Z,5.13
2018-07-10T21:52:19.702Z,5.77
2018-07-10T21:54:48.487Z,3.87
2018-07-10T21:57:18.687Z,5.77
2018-07-10T21:59:56.662Z,3.87
2018-07-10T22:02:25.399Z,5.17
2018-07-10T22:04:56.944Z,4.33
2018-07-10T22:07:29.212Z,8.87
2018-07-10T22:10:08.021Z,6.67
2018-07-10T22:12:46.141Z,5.40
2018-07-10T22:15:15.320Z,5.13
2018-07-10T22:17:44.065Z,4.33
2018-07-10T22:20:12.992Z,5.10
2018-07-10T22:22:42.051Z,4.77
2018-07-10T22:25:10.973Z,6.13
2018-07-10T22:27:42.061Z,8.30
2018-07-10T22:30:21.152Z,8.17
2018-07-10T22:33:01.710Z,6.80
2018-07-10T22:35:30.753Z,6.80
2018-07-10T22:38:00.119Z,4.17
2018-07-10T22:40:28.859Z,7.60
2018-07-10T22:42:58.166Z,5.80
2018-07-10T22:45:33.206Z,5.40
2018-07-10T22:48:02.715Z,6.77
2018-07-10T22:50:31.679Z,4.87
2018-07-10T22:53:01.686Z,6.30
2018-07-10T22:55:32.513Z,6.03
2018-07-10T22:58:06.511Z,5.10
2018-07-10T23:00:37.208Z,7.20
2018-07-10T23:03:22.094Z,6.97
2018-07-10T23:05:51.954Z,5.27
2018-07-10T23:08:33.293Z,7.10
2018-07-10T23:11:04.405Z,3.87
2018-07-10T23:13:36.961Z,5.23
2018-07-10T23:16:06.404Z,6.43
2018-07-10T23:18:35.395Z,9.23
2018-07-10T23:21:05.222Z,7.60
2018-07-10T23:23:34.485Z,6.77
2018-07-10T23:26:03.471Z,6.97
2018-07-10T23:28:32.975Z,10.30
2018-07-10T23:31:03.796Z,10.77
2018-07-10T23:33:33.130Z,10.23
2018-07-10T23:36:02.255Z,6.27
2018-07-10T23:38:39.109Z,5.50
2018-07-10T23:41:21.597Z,7.13
2018-07-10T23:43:50.985Z,8.13
2018-07-10T23:46:30.507Z,7.13
2018-07-10T23:49:12.439Z,6.73
2018-07-10T23:51:57.988Z,7.30
2018-07-10T23:54:27.326Z,6.77
2018-07-10T23:56:56.250Z,6.33
2018-07-10T23:59:25.217Z,6.20
